HAZ633 ZKPY-ZYTX
Flight info
| Callsign | HAZ633 |
|---|---|
| Flight time | 0h 36m |
| Altitude | 25600 |
| Route | JONJU A575 GOLOT A345 ANSUK |
| Aircraft | A20N/M-SD1T1E2E3FGILRWXY/LB1D1 |
Departure
| Time | 2026-04-29 16:33 |
|---|---|
| Airport | Pyongyang Sunan International Airport (ZKPY) |
Arrival
| Time | 2026-04-29 17:09 |
|---|---|
| Airport | Shenyang Taoxian International Airport (ZYTX) |
| Time | Latitude | Longitude | Altitude | Speed | Heading |
|---|---|---|---|---|---|
| 2026-04-29 16:19 | 39.20146 | 125.67529 | 123 ft | 0 kts | 69° |
| 2026-04-29 16:22 | 39.20145 | 125.67528 | 123 ft | 1 kts | 69° |
| 2026-04-29 16:22 | 39.20140 | 125.67510 | 123 ft | 2 kts | 69° |
| 2026-04-29 16:22 | 39.20134 | 125.67492 | 124 ft | 2 kts | 69° |
| 2026-04-29 16:22 | 39.20133 | 125.67473 | 124 ft | 2 kts | 103° |
| 2026-04-29 16:23 | 39.20139 | 125.67454 | 124 ft | 2 kts | 130° |
| 2026-04-29 16:23 | 39.20151 | 125.67442 | 124 ft | 1 kts | 157° |
| 2026-04-29 16:23 | 39.20157 | 125.67440 | 124 ft | 1 kts | 166° |
| 2026-04-29 16:23 | 39.20160 | 125.67439 | 123 ft | 0 kts | 163° |
| 2026-04-29 16:26 | 39.20153 | 125.67442 | 123 ft | 2 kts | 162° |
| 2026-04-29 16:26 | 39.20134 | 125.67449 | 123 ft | 3 kts | 162° |
| 2026-04-29 16:26 | 39.20107 | 125.67461 | 123 ft | 4 kts | 162° |
| 2026-04-29 16:26 | 39.20072 | 125.67476 | 123 ft | 6 kts | 161° |
| 2026-04-29 16:27 | 39.20029 | 125.67496 | 123 ft | 7 kts | 161° |
| 2026-04-29 16:27 | 39.19977 | 125.67517 | 123 ft | 8 kts | 163° |
| 2026-04-29 16:27 | 39.19917 | 125.67542 | 123 ft | 9 kts | 163° |
| 2026-04-29 16:27 | 39.19856 | 125.67561 | 123 ft | 8 kts | 167° |
| 2026-04-29 16:28 | 39.19801 | 125.67580 | 123 ft | 7 kts | 164° |
| 2026-04-29 16:28 | 39.19751 | 125.67600 | 123 ft | 6 kts | 162° |
| 2026-04-29 16:28 | 39.19707 | 125.67618 | 124 ft | 6 kts | 162° |
| 2026-04-29 16:28 | 39.19669 | 125.67634 | 124 ft | 5 kts | 162° |
| 2026-04-29 16:29 | 39.19636 | 125.67648 | 124 ft | 4 kts | 162° |
| 2026-04-29 16:29 | 39.19608 | 125.67660 | 124 ft | 3 kts | 161° |
| 2026-04-29 16:29 | 39.19584 | 125.67670 | 124 ft | 3 kts | 163° |
| 2026-04-29 16:29 | 39.19565 | 125.67678 | 124 ft | 3 kts | 163° |
| 2026-04-29 16:30 | 39.19538 | 125.67688 | 124 ft | 4 kts | 165° |
| 2026-04-29 16:30 | 39.19499 | 125.67703 | 124 ft | 6 kts | 163° |
| 2026-04-29 16:30 | 39.19448 | 125.67723 | 124 ft | 8 kts | 162° |
| 2026-04-29 16:30 | 39.19387 | 125.67750 | 123 ft | 9 kts | 160° |
| 2026-04-29 16:31 | 39.19317 | 125.67774 | 123 ft | 11 kts | 165° |
| 2026-04-29 16:31 | 39.19234 | 125.67806 | 123 ft | 13 kts | 163° |
| 2026-04-29 16:31 | 39.19143 | 125.67825 | 123 ft | 13 kts | 198° |
| 2026-04-29 16:31 | 39.19096 | 125.67725 | 123 ft | 14 kts | 272° |
| 2026-04-29 16:32 | 39.19131 | 125.67614 | 123 ft | 12 kts | 310° |
| 2026-04-29 16:32 | 39.19201 | 125.67558 | 123 ft | 10 kts | 343° |
| 2026-04-29 16:32 | 39.19375 | 125.67492 | 123 ft | 58 kts | 343° |
| 2026-04-29 16:32 | 39.19966 | 125.67258 | 124 ft | 118 kts | 343° |
| 2026-04-29 16:33 | 39.22024 | 125.66485 | 711 ft | 170 kts | 343° |
| 2026-04-29 16:33 | 39.23198 | 125.66021 | 1229 ft | 184 kts | 342° |
| 2026-04-29 16:33 | 39.24429 | 125.65359 | 1785 ft | 199 kts | 330° |
| 2026-04-29 16:34 | 39.25608 | 125.64352 | 2380 ft | 213 kts | 326° |
| 2026-04-29 16:34 | 39.26893 | 125.63188 | 2878 ft | 235 kts | 324° |
| 2026-04-29 16:34 | 39.28227 | 125.61925 | 3605 ft | 246 kts | 323° |
| 2026-04-29 16:34 | 39.29640 | 125.60570 | 4186 ft | 264 kts | 324° |
| 2026-04-29 16:35 | 39.31195 | 125.59092 | 4633 ft | 288 kts | 325° |
| 2026-04-29 16:35 | 39.32858 | 125.57527 | 5105 ft | 308 kts | 325° |
| 2026-04-29 16:35 | 39.34639 | 125.55862 | 5611 ft | 327 kts | 326° |
| 2026-04-29 16:35 | 39.36543 | 125.54083 | 6131 ft | 345 kts | 326° |
| 2026-04-29 16:36 | 39.38539 | 125.52220 | 6639 ft | 360 kts | 326° |
| 2026-04-29 16:36 | 39.40591 | 125.50304 | 7147 ft | 367 kts | 326° |
| 2026-04-29 16:36 | 39.42664 | 125.48364 | 7646 ft | 371 kts | 326° |
| 2026-04-29 16:36 | 39.44774 | 125.46388 | 8157 ft | 375 kts | 326° |
| 2026-04-29 16:37 | 39.46892 | 125.44403 | 8662 ft | 380 kts | 326° |
| 2026-04-29 16:37 | 39.49024 | 125.42339 | 9159 ft | 383 kts | 323° |
| 2026-04-29 16:37 | 39.51106 | 125.40173 | 9663 ft | 387 kts | 322° |
| 2026-04-29 16:37 | 39.52490 | 125.38711 | 10004 ft | 390 kts | 322° |
| 2026-04-29 16:38 | 39.55311 | 125.35712 | 10686 ft | 395 kts | 322° |
| 2026-04-29 16:38 | 39.57422 | 125.33466 | 11200 ft | 398 kts | 321° |
| 2026-04-29 16:38 | 39.59582 | 125.31158 | 11723 ft | 402 kts | 322° |
| 2026-04-29 16:38 | 39.61764 | 125.28829 | 12230 ft | 405 kts | 322° |
| 2026-04-29 16:39 | 39.63946 | 125.26506 | 12727 ft | 410 kts | 322° |
| 2026-04-29 16:39 | 39.66163 | 125.24152 | 13222 ft | 418 kts | 322° |
| 2026-04-29 16:39 | 39.68389 | 125.21685 | 13715 ft | 426 kts | 319° |
| 2026-04-29 16:39 | 39.70519 | 125.19004 | 14212 ft | 432 kts | 316° |
| 2026-04-29 16:40 | 39.72654 | 125.16161 | 14715 ft | 437 kts | 315° |
| 2026-04-29 16:40 | 39.74761 | 125.13323 | 15216 ft | 441 kts | 315° |
| 2026-04-29 16:40 | 39.76885 | 125.10456 | 15713 ft | 444 kts | 315° |
| 2026-04-29 16:40 | 39.79055 | 125.07533 | 16206 ft | 448 kts | 315° |
| 2026-04-29 16:41 | 39.81207 | 125.04633 | 16697 ft | 451 kts | 315° |
| 2026-04-29 16:41 | 39.83379 | 125.01708 | 17188 ft | 455 kts | 315° |
| 2026-04-29 16:41 | 39.85605 | 124.98709 | 17675 ft | 458 kts | 315° |
| 2026-04-29 16:41 | 39.87807 | 124.95738 | 18125 ft | 461 kts | 315° |
| 2026-04-29 16:42 | 39.90051 | 124.92707 | 18594 ft | 464 kts | 315° |
| 2026-04-29 16:42 | 39.92278 | 124.89700 | 19069 ft | 466 kts | 315° |
| 2026-04-29 16:42 | 39.94543 | 124.86638 | 19560 ft | 468 kts | 315° |
| 2026-04-29 16:42 | 39.96791 | 124.83593 | 20066 ft | 470 kts | 315° |
| 2026-04-29 16:43 | 39.99066 | 124.80509 | 20583 ft | 472 kts | 315° |
| 2026-04-29 16:43 | 40.01342 | 124.77420 | 21094 ft | 473 kts | 315° |
| 2026-04-29 16:43 | 40.03627 | 124.74316 | 21579 ft | 476 kts | 315° |
| 2026-04-29 16:43 | 40.05951 | 124.71151 | 21772 ft | 484 kts | 315° |
| 2026-04-29 16:44 | 40.08045 | 124.67766 | 21778 ft | 487 kts | 304° |
| 2026-04-29 16:44 | 40.09803 | 124.63960 | 21793 ft | 487 kts | 300° |
| 2026-04-29 16:44 | 40.11440 | 124.60117 | 21793 ft | 487 kts | 300° |
| 2026-04-29 16:44 | 40.13099 | 124.56266 | 21789 ft | 488 kts | 300° |
| 2026-04-29 16:45 | 40.14813 | 124.52396 | 21792 ft | 488 kts | 301° |
| 2026-04-29 16:45 | 40.16528 | 124.48605 | 21786 ft | 487 kts | 301° |
| 2026-04-29 16:45 | 40.18281 | 124.44782 | 21780 ft | 487 kts | 302° |
| 2026-04-29 16:45 | 40.20026 | 124.41000 | 21780 ft | 487 kts | 302° |
| 2026-04-29 16:46 | 40.21774 | 124.37225 | 21781 ft | 486 kts | 302° |
| 2026-04-29 16:46 | 40.23529 | 124.33472 | 21776 ft | 486 kts | 303° |
| 2026-04-29 16:46 | 40.25735 | 124.30128 | 21753 ft | 481 kts | 322° |
| 2026-04-29 16:46 | 40.28606 | 124.27959 | 21763 ft | 476 kts | 342° |
| 2026-04-29 16:47 | 40.31807 | 124.27065 | 21787 ft | 472 kts | 356° |
| 2026-04-29 16:47 | 40.35076 | 124.26746 | 21782 ft | 470 kts | 359° |
| 2026-04-29 16:47 | 40.38336 | 124.26541 | 21773 ft | 470 kts | 359° |
| 2026-04-29 16:47 | 40.41595 | 124.26312 | 21773 ft | 470 kts | 359° |
| 2026-04-29 16:48 | 40.44895 | 124.26032 | 21768 ft | 470 kts | 358° |
| 2026-04-29 16:48 | 40.48156 | 124.25719 | 21765 ft | 471 kts | 358° |
| 2026-04-29 16:48 | 40.51410 | 124.25380 | 21765 ft | 471 kts | 357° |
| 2026-04-29 16:48 | 40.54702 | 124.25024 | 21768 ft | 470 kts | 357° |
| 2026-04-29 16:49 | 40.57949 | 124.24663 | 21769 ft | 470 kts | 357° |
| 2026-04-29 16:49 | 40.61208 | 124.24297 | 21768 ft | 471 kts | 356° |
| 2026-04-29 16:49 | 40.64453 | 124.23931 | 21768 ft | 470 kts | 356° |
| 2026-04-29 16:49 | 40.67740 | 124.23558 | 21753 ft | 470 kts | 356° |
| 2026-04-29 16:50 | 40.71021 | 124.23187 | 21446 ft | 467 kts | 356° |
| 2026-04-29 16:50 | 40.74192 | 124.22827 | 21076 ft | 454 kts | 356° |
| 2026-04-29 16:50 | 40.77296 | 124.22472 | 20694 ft | 444 kts | 356° |
| 2026-04-29 16:50 | 40.80372 | 124.22119 | 20261 ft | 444 kts | 356° |
| 2026-04-29 16:51 | 40.83461 | 124.21768 | 19828 ft | 441 kts | 356° |
| 2026-04-29 16:51 | 40.86495 | 124.21424 | 19403 ft | 439 kts | 356° |
| 2026-04-29 16:51 | 40.89550 | 124.21077 | 18973 ft | 436 kts | 356° |
| 2026-04-29 16:51 | 40.92555 | 124.20734 | 18545 ft | 434 kts | 356° |
| 2026-04-29 16:52 | 40.95562 | 124.20391 | 18117 ft | 432 kts | 356° |
| 2026-04-29 16:52 | 40.98540 | 124.20050 | 17699 ft | 435 kts | 356° |
| 2026-04-29 16:52 | 41.01566 | 124.19702 | 17270 ft | 436 kts | 356° |
| 2026-04-29 16:52 | 41.04605 | 124.19355 | 16841 ft | 433 kts | 356° |
| 2026-04-29 16:53 | 41.07579 | 124.19065 | 16419 ft | 430 kts | 357° |
| 2026-04-29 16:53 | 41.10585 | 124.18817 | 15986 ft | 428 kts | 358° |
| 2026-04-29 16:53 | 41.13540 | 124.18581 | 15561 ft | 426 kts | 358° |
| 2026-04-29 16:53 | 41.16480 | 124.18342 | 15138 ft | 424 kts | 358° |
| 2026-04-29 16:54 | 41.19396 | 124.18101 | 14713 ft | 420 kts | 358° |
| 2026-04-29 16:54 | 41.22331 | 124.17852 | 14276 ft | 418 kts | 357° |
| 2026-04-29 16:54 | 41.25227 | 124.17617 | 13840 ft | 416 kts | 358° |
| 2026-04-29 16:54 | 41.28083 | 124.17916 | 13415 ft | 411 kts | 13° |
| 2026-04-29 16:55 | 41.30751 | 124.19172 | 13004 ft | 405 kts | 27° |
| 2026-04-29 16:55 | 41.33242 | 124.20946 | 12581 ft | 402 kts | 30° |
| 2026-04-29 16:55 | 41.35741 | 124.22474 | 12143 ft | 396 kts | 16° |
| 2026-04-29 16:55 | 41.38467 | 124.22670 | 11760 ft | 388 kts | 352° |
| 2026-04-29 16:56 | 41.40986 | 124.21573 | 11434 ft | 379 kts | 335° |
| 2026-04-29 16:56 | 41.43307 | 124.20007 | 11117 ft | 369 kts | 333° |
| 2026-04-29 16:56 | 41.45562 | 124.18467 | 10790 ft | 360 kts | 334° |
| 2026-04-29 16:56 | 41.47798 | 124.16987 | 10463 ft | 351 kts | 335° |
| 2026-04-29 16:57 | 41.49951 | 124.15600 | 10170 ft | 342 kts | 335° |
| 2026-04-29 16:57 | 41.52091 | 124.14248 | 9865 ft | 334 kts | 336° |
| 2026-04-29 16:57 | 41.54156 | 124.12955 | 9567 ft | 326 kts | 336° |
| 2026-04-29 16:57 | 41.56200 | 124.11682 | 9271 ft | 319 kts | 336° |
| 2026-04-29 16:58 | 41.58183 | 124.10446 | 8977 ft | 312 kts | 336° |
| 2026-04-29 16:58 | 41.60149 | 124.09222 | 8675 ft | 306 kts | 336° |
| 2026-04-29 16:58 | 41.62056 | 124.08035 | 8377 ft | 300 kts | 336° |
| 2026-04-29 16:58 | 41.63862 | 124.06715 | 8079 ft | 296 kts | 326° |
| 2026-04-29 16:59 | 41.65447 | 124.04951 | 7780 ft | 292 kts | 317° |
| 2026-04-29 16:59 | 41.66859 | 124.03070 | 7485 ft | 287 kts | 315° |
| 2026-04-29 16:59 | 41.68259 | 124.01150 | 7187 ft | 283 kts | 315° |
| 2026-04-29 16:59 | 41.69619 | 123.99288 | 6892 ft | 279 kts | 315° |
| 2026-04-29 17:00 | 41.70981 | 123.97436 | 6594 ft | 278 kts | 316° |
| 2026-04-29 17:00 | 41.72329 | 123.95612 | 6386 ft | 276 kts | 316° |
| 2026-04-29 17:00 | 41.73676 | 123.93795 | 6354 ft | 270 kts | 315° |
| 2026-04-29 17:00 | 41.74972 | 123.92045 | 6342 ft | 254 kts | 315° |
| 2026-04-29 17:01 | 41.76174 | 123.90420 | 6327 ft | 241 kts | 316° |
| 2026-04-29 17:01 | 41.77331 | 123.88856 | 6308 ft | 228 kts | 316° |
| 2026-04-29 17:01 | 41.78480 | 123.87380 | 6260 ft | 232 kts | 320° |
| 2026-04-29 17:01 | 41.79694 | 123.85957 | 5988 ft | 231 kts | 320° |
| 2026-04-29 17:02 | 41.80910 | 123.84552 | 5746 ft | 230 kts | 320° |
| 2026-04-29 17:02 | 41.82134 | 123.83137 | 5508 ft | 230 kts | 319° |
| 2026-04-29 17:02 | 41.83310 | 123.81718 | 5263 ft | 229 kts | 310° |
| 2026-04-29 17:02 | 41.83936 | 123.79810 | 4959 ft | 223 kts | 268° |
| 2026-04-29 17:03 | 41.83489 | 123.77914 | 4763 ft | 213 kts | 235° |
| 2026-04-29 17:03 | 41.82593 | 123.76379 | 4597 ft | 206 kts | 229° |
| 2026-04-29 17:03 | 41.81661 | 123.74961 | 4419 ft | 200 kts | 227° |
| 2026-04-29 17:03 | 41.80750 | 123.73604 | 4342 ft | 188 kts | 227° |
| 2026-04-29 17:04 | 41.79880 | 123.72308 | 4137 ft | 185 kts | 227° |
| 2026-04-29 17:04 | 41.79028 | 123.71034 | 3990 ft | 184 kts | 227° |
| 2026-04-29 17:04 | 41.78186 | 123.69769 | 3757 ft | 182 kts | 227° |
| 2026-04-29 17:04 | 41.77345 | 123.68501 | 3531 ft | 180 kts | 227° |
| 2026-04-29 17:05 | 41.76522 | 123.67258 | 3299 ft | 178 kts | 227° |
| 2026-04-29 17:05 | 41.75705 | 123.66024 | 3066 ft | 176 kts | 227° |
| 2026-04-29 17:05 | 41.74890 | 123.64793 | 2840 ft | 174 kts | 227° |
| 2026-04-29 17:05 | 41.74094 | 123.63593 | 2719 ft | 172 kts | 227° |
| 2026-04-29 17:06 | 41.73302 | 123.62396 | 2662 ft | 173 kts | 227° |
| 2026-04-29 17:06 | 41.72496 | 123.61179 | 2462 ft | 172 kts | 227° |
| 2026-04-29 17:06 | 41.71707 | 123.59988 | 2229 ft | 170 kts | 227° |
| 2026-04-29 17:06 | 41.70933 | 123.58819 | 2001 ft | 168 kts | 227° |
| 2026-04-29 17:07 | 41.70163 | 123.57656 | 1775 ft | 166 kts | 227° |
| 2026-04-29 17:07 | 41.69401 | 123.56506 | 1552 ft | 165 kts | 228° |
| 2026-04-29 17:07 | 41.68650 | 123.55372 | 1346 ft | 157 kts | 228° |
| 2026-04-29 17:07 | 41.67960 | 123.54330 | 1119 ft | 142 kts | 228° |
| 2026-04-29 17:08 | 41.67339 | 123.53394 | 908 ft | 129 kts | 228° |
| 2026-04-29 17:08 | 41.66746 | 123.52498 | 753 ft | 129 kts | 228° |
| 2026-04-29 17:08 | 41.66147 | 123.51593 | 590 ft | 130 kts | 228° |
| 2026-04-29 17:08 | 41.65541 | 123.50681 | 416 ft | 131 kts | 228° |
| 2026-04-29 17:09 | 41.64938 | 123.49760 | 238 ft | 132 kts | 229° |
| 2026-04-29 17:09 | 41.64378 | 123.48904 | 207 ft | 104 kts | 228° |
| 2026-04-29 17:09 | 41.64012 | 123.48356 | 207 ft | 53 kts | 229° |
| 2026-04-29 17:09 | 41.63814 | 123.48078 | 207 ft | 37 kts | 214° |
| 2026-04-29 17:10 | 41.63605 | 123.47919 | 207 ft | 31 kts | 195° |
| 2026-04-29 17:10 | 41.63508 | 123.47955 | 207 ft | 14 kts | 80° |
| 2026-04-29 17:10 | 41.63568 | 123.48063 | 207 ft | 14 kts | 47° |
| 2026-04-29 17:10 | 41.63638 | 123.48169 | 207 ft | 15 kts | 49° |
| 2026-04-29 17:11 | 41.63704 | 123.48274 | 207 ft | 10 kts | 65° |
| 2026-04-29 17:11 | 41.63680 | 123.48359 | 207 ft | 11 kts | 136° |
| 2026-04-29 17:11 | 41.63617 | 123.48438 | 207 ft | 13 kts | 137° |
| 2026-04-29 17:11 | 41.63554 | 123.48498 | 207 ft | 11 kts | 160° |
| 2026-04-29 17:12 | 41.63491 | 123.48536 | 207 ft | 7 kts | 140° |
| 2026-04-29 17:12 | 41.63471 | 123.48561 | 207 ft | 0 kts | 137° |
| 2026-04-29 17:12 | 41.63469 | 123.48563 | 207 ft | 0 kts | 137° |